createdAt,value
2018-10-11T00:01:03.757Z,13.27
2018-10-11T00:03:33.310Z,12.67
2018-10-11T00:06:02.604Z,13.43
2018-10-11T00:08:32.052Z,16.77
2018-10-11T00:11:01.476Z,15.90
2018-10-11T00:13:30.797Z,14.43
2018-10-11T00:16:00.271Z,16.00
2018-10-11T00:18:29.704Z,10.83
2018-10-11T00:20:58.904Z,15.87
2018-10-11T00:23:28.430Z,13.07
2018-10-11T00:25:57.762Z,14.70
2018-10-11T00:28:27.128Z,13.17
2018-10-11T00:30:56.697Z,14.47
2018-10-11T00:33:26.174Z,12.70
2018-10-11T00:35:55.356Z,11.03
2018-10-11T00:38:25.188Z,16.10
2018-10-11T01:38:30.486Z,24.63
2018-10-11T01:40:59.759Z,30.80
2018-10-11T01:43:29.192Z,27.67
2018-10-11T01:45:58.549Z,30.50
2018-10-11T01:48:27.910Z,28.60
2018-10-11T01:50:57.546Z,31.80
2018-10-11T01:53:27.126Z,27.30
2018-10-11T01:55:56.236Z,29.77
2018-10-11T01:58:25.886Z,29.40
2018-10-11T02:00:55.228Z,26.70
2018-10-11T02:03:24.536Z,24.20
2018-10-11T02:05:53.957Z,23.67
2018-10-11T02:08:23.340Z,21.43
2018-10-11T02:10:52.713Z,22.90
2018-10-11T02:13:22.486Z,19.37
2018-10-11T02:15:51.804Z,16.90
2018-10-11T02:18:35.648Z,19.83
2018-10-11T02:21:05.065Z,20.07
2018-10-11T02:23:34.729Z,18.67
2018-10-11T02:26:04.400Z,17.87
2018-10-11T02:28:33.636Z,19.27
2018-10-11T02:31:03.478Z,19.87
2018-10-11T02:33:32.712Z,19.67
2018-10-11T02:36:02.335Z,21.07
2018-10-11T02:38:32.169Z,20.30
2018-10-11T02:41:02.059Z,18.80
2018-10-11T02:43:31.361Z,16.63
2018-10-11T02:46:00.931Z,18.83
2018-10-11T02:48:30.345Z,19.60
2018-10-11T02:50:59.757Z,16.07
2018-10-11T02:53:29.118Z,21.60
2018-10-11T02:55:58.423Z,21.63
2018-10-11T02:58:38.701Z,20.13
2018-10-11T03:01:08.810Z,21.30
2018-10-11T03:03:39.084Z,23.90
2018-10-11T03:06:08.732Z,25.13
2018-10-11T03:08:39.111Z,19.53
2018-10-11T03:11:08.679Z,18.57
2018-10-11T03:13:38.438Z,20.97
2018-10-11T03:16:07.899Z,25.47
2018-10-11T03:18:37.081Z,25.70
2018-10-11T03:21:06.889Z,22.10
2018-10-11T03:23:36.217Z,22.80
2018-10-11T03:26:06.490Z,21.70
2018-10-11T03:28:36.850Z,22.80
2018-10-11T03:31:06.386Z,24.67
2018-10-11T03:33:35.790Z,23.93
2018-10-11T03:36:05.354Z,22.77
2018-10-11T03:38:35.024Z,23.67
2018-10-11T03:41:05.075Z,23.83
2018-10-11T03:43:35.038Z,25.30
2018-10-11T03:46:04.959Z,24.70
2018-10-11T03:48:36.111Z,29.43
2018-10-11T03:51:05.608Z,29.23
2018-10-11T03:53:34.868Z,29.83
2018-10-11T03:56:04.350Z,37.07
2018-10-11T03:58:33.982Z,30.77
2018-10-11T04:01:03.491Z,32.97
2018-10-11T04:03:32.837Z,28.77
2018-10-11T04:06:02.454Z,32.20
2018-10-11T04:08:32.734Z,39.97
2018-10-11T04:11:01.956Z,33.73
2018-10-11T04:13:31.220Z,37.87
2018-10-11T04:16:01.029Z,34.57
2018-10-11T04:18:30.426Z,33.37
2018-10-11T04:20:59.956Z,40.93
2018-10-11T04:23:31.475Z,37.60
2018-10-11T04:26:01.456Z,37.00
2018-10-11T04:28:30.832Z,32.57
2018-10-11T04:31:00.637Z,39.10
2018-10-11T04:33:30.224Z,36.30
2018-10-11T04:36:00.127Z,40.63
2018-10-11T04:38:29.637Z,36.17
2018-10-11T04:40:59.054Z,34.43
2018-10-11T04:43:28.579Z,37.93
2018-10-11T04:45:58.253Z,39.33
2018-10-11T04:48:27.830Z,36.57
2018-10-11T04:50:57.193Z,40.40
2018-10-11T04:53:26.798Z,39.87
2018-10-11T04:55:56.180Z,41.17
2018-10-11T04:58:25.481Z,40.07
2018-10-11T05:00:54.967Z,43.43
2018-10-11T05:03:24.855Z,40.03
2018-10-11T05:05:54.218Z,44.07
2018-10-11T05:08:24.274Z,45.43
2018-10-11T05:10:54.293Z,40.70
2018-10-11T05:13:51.421Z,42.13
2018-10-11T05:16:21.661Z,42.97
2018-10-11T05:18:54.274Z,43.37
2018-10-11T05:21:23.589Z,45.93
2018-10-11T05:23:53.287Z,45.07
2018-10-11T05:26:23.116Z,45.67
2018-10-11T05:28:52.346Z,44.47
2018-10-11T05:31:21.765Z,42.83
2018-10-11T05:33:52.340Z,41.23
2018-10-11T05:36:22.591Z,49.67
2018-10-11T05:38:52.303Z,44.03
2018-10-11T05:41:22.185Z,51.07
2018-10-11T05:43:51.532Z,42.60
2018-10-11T05:46:25.261Z,47.10
2018-10-11T05:48:55.063Z,42.40
2018-10-11T05:51:24.529Z,46.93
2018-10-11T05:53:54.682Z,45.40
2018-10-11T05:56:25.508Z,43.93
2018-10-11T05:58:55.026Z,41.20
2018-10-11T06:01:25.756Z,43.93
2018-10-11T06:03:55.800Z,42.10
2018-10-11T06:06:25.462Z,42.80
2018-10-11T06:08:55.491Z,43.60
2018-10-11T06:11:25.820Z,41.27
2018-10-11T06:13:55.619Z,41.67
2018-10-11T06:16:25.395Z,43.73
2018-10-11T06:18:55.044Z,44.60
2018-10-11T06:21:25.142Z,45.73
2018-10-11T06:23:54.422Z,41.63
2018-10-11T06:26:23.975Z,44.97
2018-10-11T06:28:53.382Z,40.97
2018-10-11T06:31:23.768Z,42.67
2018-10-11T06:33:54.385Z,41.53
2018-10-11T06:36:24.773Z,37.07
2018-10-11T06:38:54.676Z,39.23
2018-10-11T06:41:29.396Z,40.97
2018-10-11T06:43:59.354Z,43.47
2018-10-11T06:46:29.099Z,40.37
2018-10-11T06:48:59.074Z,41.00
2018-10-11T06:51:28.437Z,38.67
2018-10-11T06:53:58.840Z,45.40
2018-10-11T06:56:28.624Z,43.80
2018-10-11T06:58:58.047Z,43.03
2018-10-11T07:01:28.033Z,39.43
2018-10-11T07:03:57.498Z,41.47
2018-10-11T07:06:27.075Z,40.60
2018-10-11T07:08:56.506Z,44.23
2018-10-11T07:11:26.526Z,38.03
2018-10-11T07:13:56.288Z,38.70
2018-10-11T07:16:26.926Z,39.77
2018-10-11T07:18:56.155Z,37.33
2018-10-11T07:21:25.747Z,39.63
2018-10-11T07:23:55.559Z,39.70
2018-10-11T07:26:25.185Z,41.27
2018-10-11T07:28:54.372Z,40.27
2018-10-11T07:31:24.459Z,38.87
2018-10-11T07:33:53.691Z,41.93
2018-10-11T07:36:23.998Z,34.87
2018-10-11T07:38:53.422Z,33.77
2018-10-11T07:41:23.377Z,36.60
2018-10-11T07:43:52.804Z,35.07
2018-10-11T07:46:22.631Z,36.40
2018-10-11T07:48:51.822Z,33.33
2018-10-11T07:51:21.375Z,36.07
2018-10-11T07:53:50.963Z,36.80
2018-10-11T07:56:20.275Z,39.87
2018-10-11T07:58:52.387Z,35.87
2018-10-11T08:01:21.669Z,38.23
2018-10-11T08:03:51.323Z,37.57
2018-10-11T08:06:20.890Z,36.30
2018-10-11T08:08:50.278Z,38.13
2018-10-11T08:11:19.766Z,40.20
2018-10-11T08:13:49.399Z,36.30
2018-10-11T08:16:19.835Z,41.47
2018-10-11T08:18:49.562Z,38.63
2018-10-11T08:21:19.109Z,35.90
2018-10-11T08:23:48.715Z,37.33
2018-10-11T08:26:18.647Z,37.87
2018-10-11T08:28:47.858Z,36.30
2018-10-11T08:31:17.438Z,39.07
2018-10-11T08:33:46.797Z,32.43
2018-10-11T08:36:16.513Z,36.27
2018-10-11T08:38:45.856Z,33.17
2018-10-11T08:41:15.560Z,33.60
2018-10-11T08:43:45.484Z,37.10
2018-10-11T08:46:15.779Z,32.37
2018-10-11T08:48:45.965Z,34.37
2018-10-11T08:51:15.816Z,33.00
2018-10-11T08:53:45.479Z,29.67
2018-10-11T08:56:15.179Z,33.40
2018-10-11T08:58:44.709Z,34.40
2018-10-11T09:01:14.114Z,28.90
2018-10-11T09:03:43.787Z,29.33
2018-10-11T09:06:13.066Z,30.57
2018-10-11T09:08:42.780Z,28.53
2018-10-11T09:11:12.514Z,40.23
2018-10-11T09:13:42.631Z,29.83
2018-10-11T09:16:12.114Z,28.17
2018-10-11T09:18:41.537Z,31.67
2018-10-11T09:21:11.188Z,29.47
2018-10-11T09:23:40.365Z,30.47
2018-10-11T09:26:09.889Z,26.43
2018-10-11T09:28:39.402Z,31.33
2018-10-11T09:31:08.986Z,24.60
2018-10-11T09:33:39.166Z,27.87
2018-10-11T09:36:08.603Z,27.27
2018-10-11T09:38:38.870Z,26.27
2018-10-11T09:41:09.257Z,27.13
2018-10-11T09:43:39.019Z,24.43
2018-10-11T09:46:09.566Z,25.90
2018-10-11T09:48:39.073Z,24.90
2018-10-11T09:51:09.347Z,22.27
2018-10-11T09:53:38.575Z,21.40
2018-10-11T09:56:08.106Z,22.20
2018-10-11T09:58:39.668Z,23.80
2018-10-11T10:01:15.343Z,22.37
2018-10-11T10:03:45.322Z,23.10
2018-10-11T10:06:14.884Z,21.77
2018-10-11T10:08:44.897Z,26.10
2018-10-11T10:11:14.558Z,23.47
2018-10-11T10:13:43.845Z,21.13
2018-10-11T10:16:13.768Z,19.67
2018-10-11T10:18:43.120Z,22.47
2018-10-11T10:21:12.764Z,18.27
2018-10-11T10:23:42.167Z,21.10
2018-10-11T10:26:11.668Z,18.53
2018-10-11T10:28:44.954Z,20.73
2018-10-11T10:31:14.594Z,19.87
2018-10-11T10:33:44.268Z,18.73
2018-10-11T10:36:13.705Z,18.03
2018-10-11T10:38:44.203Z,22.53
2018-10-11T10:41:13.624Z,17.70
2018-10-11T10:43:43.851Z,20.20
2018-10-11T10:46:17.966Z,17.53
2018-10-11T10:48:47.666Z,20.80
2018-10-11T10:51:16.860Z,16.23
2018-10-11T10:53:46.452Z,15.77
2018-10-11T10:56:15.835Z,16.80
2018-10-11T10:58:45.108Z,16.43
2018-10-11T11:01:14.808Z,18.80
2018-10-11T11:03:44.447Z,13.83
2018-10-11T11:06:14.741Z,16.73
2018-10-11T11:08:44.538Z,15.83
2018-10-11T11:11:13.925Z,15.40
2018-10-11T11:13:43.231Z,15.77
2018-10-11T11:16:13.049Z,19.23
2018-10-11T11:18:42.324Z,18.17
2018-10-11T11:21:11.885Z,18.50
2018-10-11T11:23:41.646Z,18.00
2018-10-11T11:26:12.113Z,16.40
2018-10-11T11:28:41.567Z,16.03
2018-10-11T11:31:11.693Z,16.93
2018-10-11T11:33:41.712Z,15.43
2018-10-11T11:36:10.709Z,17.00
2018-10-11T11:38:40.052Z,18.17
2018-10-11T11:41:09.537Z,17.70
2018-10-11T11:43:38.848Z,15.13
2018-10-11T11:46:08.937Z,17.87
2018-10-11T11:48:39.023Z,17.40
2018-10-11T11:51:09.004Z,20.17
2018-10-11T11:53:39.088Z,18.60
2018-10-11T11:56:08.581Z,17.63
2018-10-11T11:58:38.406Z,19.63
2018-10-11T12:01:08.151Z,15.40
2018-10-11T12:03:38.049Z,16.73
2018-10-11T12:06:07.468Z,16.13
2018-10-11T12:08:37.370Z,18.40
2018-10-11T12:11:06.832Z,14.97
2018-10-11T12:13:36.144Z,15.73
2018-10-11T12:16:06.281Z,16.10
2018-10-11T12:18:35.938Z,16.20
2018-10-11T12:21:05.779Z,15.10
2018-10-11T12:23:35.427Z,17.43
2018-10-11T12:26:05.073Z,15.80
2018-10-11T12:28:34.756Z,16.63
2018-10-11T12:31:04.713Z,15.67
2018-10-11T12:33:34.195Z,14.87
2018-10-11T12:36:03.940Z,17.90
2018-10-11T12:38:33.704Z,16.63
2018-10-11T12:41:03.654Z,15.87
2018-10-11T12:43:33.535Z,16.70
2018-10-11T12:46:03.144Z,16.10
2018-10-11T12:48:32.501Z,16.80
2018-10-11T12:51:02.020Z,17.43
2018-10-11T12:53:31.508Z,14.43
2018-10-11T12:56:00.932Z,14.23
2018-10-11T12:58:30.461Z,14.67
2018-10-11T13:01:00.267Z,18.37
2018-10-11T13:03:29.617Z,16.53
2018-10-11T13:05:58.922Z,16.87
2018-10-11T13:08:28.809Z,14.20
2018-10-11T13:10:58.575Z,15.83
2018-10-11T13:13:28.450Z,16.17
2018-10-11T13:16:00.494Z,15.93
2018-10-11T13:18:28.873Z,22.10
2018-10-11T13:20:58.592Z,13.97
2018-10-11T13:23:28.664Z,19.03
2018-10-11T13:25:58.178Z,15.50
2018-10-11T13:28:27.632Z,16.80
2018-10-11T13:30:57.342Z,16.43
2018-10-11T13:33:26.552Z,14.90
2018-10-11T13:35:55.821Z,17.67
2018-10-11T13:38:25.931Z,15.23
2018-10-11T13:40:57.868Z,15.27
2018-10-11T13:43:24.855Z,13.80
2018-10-11T13:45:56.975Z,15.10
2018-10-11T13:48:24.038Z,15.70
2018-10-11T13:50:53.479Z,15.10
2018-10-11T13:53:24.739Z,16.70
2018-10-11T13:55:57.683Z,15.13
2018-10-11T13:58:23.520Z,16.17
2018-10-11T14:00:53.102Z,13.13
2018-10-11T14:03:22.185Z,13.90
2018-10-11T14:05:51.459Z,16.63
2018-10-11T14:08:21.031Z,13.50
2018-10-11T14:10:50.683Z,14.07
2018-10-11T14:13:20.780Z,14.17
2018-10-11T14:15:52.066Z,14.87
2018-10-11T14:18:21.547Z,16.50
2018-10-11T14:20:51.057Z,14.60
2018-10-11T14:23:21.525Z,15.23
2018-10-11T14:25:52.103Z,16.90
2018-10-11T14:28:21.904Z,17.00
2018-10-11T14:30:52.427Z,17.03
2018-10-11T14:33:24.674Z,13.73
2018-10-11T14:35:54.725Z,15.90
2018-10-11T14:38:24.191Z,14.43
2018-10-11T14:40:54.369Z,12.43
2018-10-11T14:43:24.747Z,14.80
2018-10-11T14:45:54.305Z,15.97
2018-10-11T14:48:24.336Z,14.40
2018-10-11T14:50:54.008Z,14.57
2018-10-11T14:53:23.327Z,14.37
2018-10-11T14:55:52.891Z,14.07
2018-10-11T14:58:23.234Z,12.80
2018-10-11T15:00:52.332Z,14.17
2018-10-11T15:03:23.214Z,14.83
2018-10-11T15:05:52.663Z,13.50
2018-10-11T15:08:22.256Z,14.80
2018-10-11T15:10:51.775Z,13.33
2018-10-11T15:13:20.914Z,14.03
2018-10-11T15:15:50.098Z,13.47
2018-10-11T15:18:19.952Z,16.70
2018-10-11T15:20:49.230Z,14.63
2018-10-11T15:23:18.982Z,15.43
2018-10-11T15:25:48.590Z,16.10
2018-10-11T15:28:17.973Z,15.33
2018-10-11T15:30:47.422Z,14.40
2018-10-11T15:33:18.613Z,16.50
2018-10-11T15:35:48.091Z,13.70
2018-10-11T15:38:17.907Z,13.23
2018-10-11T15:40:48.147Z,16.83
2018-10-11T15:43:18.418Z,15.07
2018-10-11T15:45:48.017Z,13.90
2018-10-11T15:48:17.560Z,13.90
2018-10-11T15:50:46.897Z,13.67
2018-10-11T15:53:16.340Z,14.17
2018-10-11T15:55:45.981Z,15.63
2018-10-11T15:58:15.581Z,13.83
2018-10-11T16:00:45.158Z,15.60
2018-10-11T16:03:17.490Z,15.03
2018-10-11T16:05:47.089Z,14.87
2018-10-11T16:08:16.644Z,14.60
2018-10-11T16:10:46.410Z,14.40
2018-10-11T16:13:16.322Z,14.07
2018-10-11T16:15:45.743Z,15.83
2018-10-11T16:18:15.371Z,16.97
2018-10-11T16:20:45.685Z,15.37
2018-10-11T16:23:15.882Z,14.57
2018-10-11T16:25:47.898Z,14.20
2018-10-11T16:28:19.060Z,16.87
2018-10-11T16:30:48.832Z,18.40
2018-10-11T16:33:18.874Z,16.77
2018-10-11T16:35:48.394Z,16.47
2018-10-11T16:38:17.817Z,14.73
2018-10-11T16:40:47.366Z,14.67
2018-10-11T16:43:16.971Z,16.10
2018-10-11T16:45:46.581Z,19.23
2018-10-11T16:48:16.339Z,14.83
2018-10-11T16:50:46.095Z,16.90
2018-10-11T16:53:15.820Z,14.47
2018-10-11T16:55:46.338Z,14.27
2018-10-11T16:58:15.953Z,17.33
2018-10-11T17:00:45.941Z,14.90
2018-10-11T17:03:15.364Z,17.40
2018-10-11T17:05:45.173Z,16.23
2018-10-11T17:08:15.068Z,16.53
2018-10-11T17:10:44.499Z,17.77
2018-10-11T17:13:15.235Z,15.63
2018-10-11T17:15:45.514Z,14.73
2018-10-11T17:18:14.508Z,14.93
2018-10-11T17:20:43.591Z,23.77
2018-10-11T17:23:13.029Z,19.57
2018-10-11T17:25:42.130Z,14.97
2018-10-11T17:28:11.824Z,18.93
2018-10-11T17:30:41.088Z,15.70
2018-10-11T17:33:10.475Z,13.93
2018-10-11T17:35:42.259Z,16.30
2018-10-11T17:38:11.895Z,17.20
2018-10-11T17:40:42.115Z,16.73
2018-10-11T17:43:11.502Z,17.27
2018-10-11T17:45:42.149Z,17.60
2018-10-11T17:48:12.185Z,16.23
2018-10-11T17:50:41.763Z,15.77
2018-10-11T17:53:11.494Z,18.77
2018-10-11T17:55:41.027Z,18.33
2018-10-11T17:58:12.046Z,16.30
2018-10-11T18:00:41.319Z,14.90
2018-10-11T18:03:14.381Z,17.67
2018-10-11T18:05:44.052Z,17.40
2018-10-11T18:08:13.196Z,17.40
2018-10-11T18:10:43.855Z,16.10
2018-10-11T18:13:12.953Z,16.20
2018-10-11T18:15:42.389Z,15.70
2018-10-11T18:18:12.473Z,16.50
2018-10-11T18:20:42.069Z,15.90
2018-10-11T18:23:11.471Z,16.20
2018-10-11T18:25:41.062Z,16.53
2018-10-11T18:28:10.605Z,16.50
2018-10-11T18:30:40.539Z,17.77
2018-10-11T18:33:14.756Z,17.23
2018-10-11T18:35:46.717Z,17.03
2018-10-11T18:38:16.497Z,16.23
2018-10-11T18:40:46.133Z,14.17
2018-10-11T18:43:17.346Z,15.10
2018-10-11T18:45:47.716Z,14.73
2018-10-11T18:48:17.828Z,16.50
2018-10-11T18:50:48.072Z,16.50
2018-10-11T18:53:17.607Z,14.93
2018-10-11T18:55:47.460Z,17.40
2018-10-11T18:58:16.900Z,14.93
2018-10-11T19:00:46.429Z,19.60
2018-10-11T19:03:21.488Z,13.83
2018-10-11T19:05:51.166Z,15.93
2018-10-11T19:08:21.588Z,13.80
2018-10-11T19:10:51.123Z,13.50
2018-10-11T19:13:20.945Z,15.40
2018-10-11T19:15:50.318Z,14.00
2018-10-11T19:18:19.894Z,13.13
2018-10-11T19:20:49.576Z,17.00
2018-10-11T19:23:19.181Z,13.57
2018-10-11T19:25:49.579Z,16.87
2018-10-11T19:28:19.311Z,14.20
2018-10-11T19:30:48.650Z,14.10
2018-10-11T19:33:18.746Z,14.00
2018-10-11T19:35:48.420Z,13.20
2018-10-11T19:38:18.109Z,14.57
2018-10-11T19:40:47.488Z,13.67
2018-10-11T19:43:17.186Z,16.10
2018-10-11T19:45:47.078Z,14.77
2018-10-11T19:48:16.434Z,16.40
2018-10-11T19:50:46.134Z,13.63
2018-10-11T19:53:15.698Z,16.17
2018-10-11T19:55:45.354Z,14.10
2018-10-11T19:58:14.522Z,16.73
2018-10-11T20:00:44.294Z,13.80
2018-10-11T20:03:13.743Z,14.03
2018-10-11T20:05:43.240Z,14.83
2018-10-11T20:08:13.145Z,15.70
2018-10-11T20:10:42.429Z,16.87
2018-10-11T20:13:12.256Z,15.37
2018-10-11T20:15:41.724Z,16.33
2018-10-11T20:18:11.214Z,15.93
2018-10-11T20:20:40.641Z,15.33
2018-10-11T20:23:10.372Z,17.23
2018-10-11T20:25:39.884Z,15.43
2018-10-11T20:28:10.032Z,16.50
2018-10-11T20:30:39.608Z,18.37
2018-10-11T20:33:09.090Z,19.10
2018-10-11T20:35:39.458Z,17.20
2018-10-11T20:38:08.958Z,16.63
2018-10-11T20:40:38.217Z,18.23
2018-10-11T20:43:07.899Z,19.70
2018-10-11T20:45:37.361Z,16.50
2018-10-11T20:48:06.636Z,17.93
2018-10-11T20:50:36.446Z,17.83
2018-10-11T20:53:05.765Z,16.50
2018-10-11T20:55:35.450Z,18.63
2018-10-11T20:58:05.303Z,16.93
2018-10-11T21:00:34.717Z,16.97
2018-10-11T21:03:04.111Z,18.27
2018-10-11T21:05:33.707Z,18.67
2018-10-11T21:08:03.066Z,16.93
2018-10-11T21:10:32.490Z,19.73
2018-10-11T21:13:02.286Z,20.27
2018-10-11T21:15:31.668Z,18.63
2018-10-11T21:18:01.137Z,17.93
2018-10-11T21:20:30.983Z,17.07
2018-10-11T21:23:00.516Z,17.63
2018-10-11T21:25:30.008Z,21.17
2018-10-11T21:27:59.665Z,18.13
2018-10-11T21:30:29.003Z,18.40
2018-10-11T21:32:58.284Z,21.37
2018-10-11T21:35:28.003Z,21.13
2018-10-11T21:37:57.336Z,17.70
2018-10-11T21:40:26.736Z,15.90
2018-10-11T21:42:56.356Z,18.33
2018-10-11T21:45:25.604Z,19.13
2018-10-11T21:47:54.944Z,20.83
2018-10-11T21:50:24.686Z,16.70
2018-10-11T21:52:54.426Z,18.70
2018-10-11T21:55:24.415Z,21.90
2018-10-11T21:57:54.150Z,18.50
2018-10-11T22:00:28.622Z,20.43
2018-10-11T22:02:58.180Z,22.23
2018-10-11T22:05:27.469Z,19.17
2018-10-11T22:07:56.849Z,20.27
2018-10-11T22:10:26.668Z,20.77
2018-10-11T22:12:56.002Z,18.97
2018-10-11T22:15:25.766Z,21.43
2018-10-11T22:17:55.366Z,20.23
2018-10-11T22:20:24.741Z,20.30
2018-10-11T22:22:54.116Z,19.47
2018-10-11T22:25:23.630Z,19.13
2018-10-11T22:27:52.979Z,20.27
2018-10-11T22:30:22.293Z,20.60
2018-10-11T22:32:51.680Z,21.60
2018-10-11T22:35:21.108Z,19.13
2018-10-11T22:37:55.590Z,19.87
2018-10-11T22:40:25.069Z,20.77
2018-10-11T22:42:54.919Z,19.40
2018-10-11T22:45:24.567Z,22.47
2018-10-11T22:47:54.493Z,21.47
2018-10-11T22:50:24.581Z,22.83
2018-10-11T22:52:54.144Z,22.07
2018-10-11T22:55:23.759Z,22.33
2018-10-11T22:57:53.273Z,23.63
2018-10-11T23:00:23.218Z,21.17
2018-10-11T23:02:52.879Z,20.60
2018-10-11T23:05:22.596Z,19.90
2018-10-11T23:07:52.148Z,21.90
2018-10-11T23:10:21.675Z,22.47
2018-10-11T23:12:50.944Z,20.20
2018-10-11T23:15:20.886Z,19.50
2018-10-11T23:17:50.239Z,26.07
2018-10-11T23:20:19.591Z,19.03
2018-10-11T23:22:49.309Z,21.67
2018-10-11T23:25:18.940Z,20.70
2018-10-11T23:27:48.637Z,22.23
2018-10-11T23:30:18.463Z,22.80
2018-10-11T23:32:48.228Z,20.83
2018-10-11T23:35:17.508Z,22.47
2018-10-11T23:37:47.185Z,22.37
2018-10-11T23:40:16.452Z,20.27
2018-10-11T23:42:46.006Z,23.83
2018-10-11T23:45:15.654Z,23.60
2018-10-11T23:47:45.199Z,21.87
2018-10-11T23:50:14.561Z,21.63
2018-10-11T23:52:44.007Z,22.23
2018-10-11T23:55:13.726Z,24.07
2018-10-11T23:57:43.084Z,23.80
